sensor_id;sensor_type;location;lat;lon;timestamp;P1;durP1;ratioP1;P2;durP2;ratioP2
84840;SDS011;75088;53.114;18.040;2024-01-30T00:01:02;40.80;;;24.10;;
84840;SDS011;75088;53.114;18.040;2024-01-30T00:02:23;43.50;;;22.10;;
84840;SDS011;75088;53.114;18.040;2024-01-30T00:03:30;47.20;;;24.80;;
84840;SDS011;75088;53.114;18.040;2024-01-30T00:04:37;48.20;;;24.30;;
84840;SDS011;75088;53.114;18.040;2024-01-30T00:05:44;49.40;;;26.90;;
84840;SDS011;75088;53.114;18.040;2024-01-30T00:06:51;49.90;;;26.30;;
84840;SDS011;75088;53.114;18.040;2024-01-30T00:07:58;49.90;;;25.20;;
84840;SDS011;75088;53.114;18.040;2024-01-30T00:09:05;49.10;;;24.60;;
84840;SDS011;75088;53.114;18.040;2024-01-30T00:10:13;51.10;;;26.50;;
84840;SDS011;75088;53.114;18.040;2024-01-30T00:11:20;46.50;;;23.80;;
84840;SDS011;75088;53.114;18.040;2024-01-30T00:12:29;42.70;;;22.50;;
84840;SDS011;75088;53.114;18.040;2024-01-30T00:13:36;42.90;;;23.80;;
84840;SDS011;75088;53.114;18.040;2024-01-30T00:14:43;48.90;;;24.60;;
84840;SDS011;75088;53.114;18.040;2024-01-30T00:15:51;48.40;;;23.00;;
84840;SDS011;75088;53.114;18.040;2024-01-30T00:16:58;46.60;;;22.00;;
84840;SDS011;75088;53.114;18.040;2024-01-30T00:18:05;45.80;;;23.50;;
84840;SDS011;75088;53.114;18.040;2024-01-30T00:19:12;49.10;;;27.00;;
84840;SDS011;75088;53.114;18.040;2024-01-30T00:20:20;52.60;;;25.70;;
84840;SDS011;75088;53.114;18.040;2024-01-30T00:21:27;52.70;;;25.90;;
84840;SDS011;75088;53.114;18.040;2024-01-30T00:22:34;52.00;;;25.30;;
84840;SDS011;75088;53.114;18.040;2024-01-30T00:23:40;50.10;;;23.80;;
84840;SDS011;75088;53.114;18.040;2024-01-30T00:24:48;47.70;;;24.40;;
84840;SDS011;75088;53.114;18.040;2024-01-30T00:25:55;56.00;;;26.20;;
84840;SDS011;75088;53.114;18.040;2024-01-30T00:27:02;46.50;;;23.40;;
84840;SDS011;75088;53.114;18.040;2024-01-30T00:28:09;48.10;;;24.00;;
84840;SDS011;75088;53.114;18.040;2024-01-30T00:29:16;52.90;;;26.70;;
84840;SDS011;75088;53.114;18.040;2024-01-30T00:30:25;58.00;;;27.40;;
84840;SDS011;75088;53.114;18.040;2024-01-30T00:31:32;54.00;;;27.50;;
84840;SDS011;75088;53.114;18.040;2024-01-30T00:32:40;50.40;;;25.30;;
84840;SDS011;75088;53.114;18.040;2024-01-30T00:33:47;50.30;;;27.40;;
84840;SDS011;75088;53.114;18.040;2024-01-30T00:34:54;48.60;;;24.40;;
84840;SDS011;75088;53.114;18.040;2024-01-30T00:36:01;49.50;;;26.10;;
84840;SDS011;75088;53.114;18.040;2024-01-30T00:37:08;52.50;;;24.30;;
84840;SDS011;75088;53.114;18.040;2024-01-30T00:38:16;49.10;;;25.00;;
84840;SDS011;75088;53.114;18.040;2024-01-30T00:39:23;48.80;;;24.30;;
84840;SDS011;75088;53.114;18.040;2024-01-30T00:40:30;57.90;;;25.90;;
84840;SDS011;75088;53.114;18.040;2024-01-30T00:41:37;48.80;;;23.80;;
84840;SDS011;75088;53.114;18.040;2024-01-30T00:42:44;48.10;;;25.70;;
84840;SDS011;75088;53.114;18.040;2024-01-30T00:43:51;53.30;;;25.10;;
84840;SDS011;75088;53.114;18.040;2024-01-30T00:44:58;56.00;;;25.90;;
84840;SDS011;75088;53.114;18.040;2024-01-30T00:46:05;55.10;;;27.40;;
84840;SDS011;75088;53.114;18.040;2024-01-30T00:47:12;53.10;;;25.10;;
84840;SDS011;75088;53.114;18.040;2024-01-30T00:48:19;59.60;;;27.80;;
84840;SDS011;75088;53.114;18.040;2024-01-30T00:49:27;48.40;;;24.30;;
84840;SDS011;75088;53.114;18.040;2024-01-30T00:50:34;49.80;;;24.00;;
84840;SDS011;75088;53.114;18.040;2024-01-30T00:51:41;52.00;;;26.10;;
84840;SDS011;75088;53.114;18.040;2024-01-30T00:52:48;51.60;;;24.30;;
84840;SDS011;75088;53.114;18.040;2024-01-30T00:53:55;44.70;;;23.30;;
84840;SDS011;75088;53.114;18.040;2024-01-30T00:55:03;46.30;;;24.90;;
84840;SDS011;75088;53.114;18.040;2024-01-30T00:56:10;47.00;;;23.10;;
84840;SDS011;75088;53.114;18.040;2024-01-30T00:57:18;49.20;;;22.70;;
84840;SDS011;75088;53.114;18.040;2024-01-30T00:58:25;46.30;;;23.20;;
84840;SDS011;75088;53.114;18.040;2024-01-30T00:59:32;45.50;;;25.10;;
84840;SDS011;75088;53.114;18.040;2024-01-30T01:00:38;51.90;;;26.30;;
84840;SDS011;75088;53.114;18.040;2024-01-30T01:01:46;43.80;;;23.50;;
84840;SDS011;75088;53.114;18.040;2024-01-30T01:02:52;45.40;;;22.80;;
84840;SDS011;75088;53.114;18.040;2024-01-30T01:04:00;47.80;;;24.10;;
84840;SDS011;75088;53.114;18.040;2024-01-30T01:05:07;48.50;;;23.20;;
84840;SDS011;75088;53.114;18.040;2024-01-30T01:06:14;43.80;;;23.80;;
84840;SDS011;75088;53.114;18.040;2024-01-30T01:07:21;39.70;;;22.20;;
84840;SDS011;75088;53.114;18.040;2024-01-30T01:08:28;42.60;;;21.90;;
84840;SDS011;75088;53.114;18.040;2024-01-30T01:09:35;44.10;;;24.00;;
84840;SDS011;75088;53.114;18.040;2024-01-30T01:10:42;42.40;;;22.00;;
84840;SDS011;75088;53.114;18.040;2024-01-30T01:11:50;40.40;;;21.10;;
84840;SDS011;75088;53.114;18.040;2024-01-30T01:12:57;38.50;;;21.40;;
84840;SDS011;75088;53.114;18.040;2024-01-30T01:14:03;45.70;;;22.30;;
84840;SDS011;75088;53.114;18.040;2024-01-30T01:15:11;39.80;;;22.50;;
84840;SDS011;75088;53.114;18.040;2024-01-30T01:16:19;39.70;;;21.00;;
84840;SDS011;75088;53.114;18.040;2024-01-30T01:17:26;41.30;;;22.70;;
84840;SDS011;75088;53.114;18.040;2024-01-30T01:18:33;43.20;;;22.00;;
84840;SDS011;75088;53.114;18.040;2024-01-30T01:19:39;46.80;;;23.30;;
84840;SDS011;75088;53.114;18.040;2024-01-30T01:20:47;42.00;;;22.40;;
84840;SDS011;75088;53.114;18.040;2024-01-30T01:21:54;44.90;;;23.40;;
84840;SDS011;75088;53.114;18.040;2024-01-30T01:23:01;44.30;;;22.40;;
84840;SDS011;75088;53.114;18.040;2024-01-30T01:24:08;43.60;;;21.80;;
84840;SDS011;75088;53.114;18.040;2024-01-30T01:25:15;43.70;;;21.20;;
84840;SDS011;75088;53.114;18.040;2024-01-30T01:26:22;43.00;;;23.40;;
84840;SDS011;75088;53.114;18.040;2024-01-30T01:27:29;40.40;;;20.60;;
84840;SDS011;75088;53.114;18.040;2024-01-30T01:28:38;45.00;;;21.60;;
84840;SDS011;75088;53.114;18.040;2024-01-30T01:29:46;40.90;;;21.00;;
84840;SDS011;75088;53.114;18.040;2024-01-30T01:30:53;40.30;;;20.40;;
84840;SDS011;75088;53.114;18.040;2024-01-30T01:32:03;42.40;;;20.40;;
84840;SDS011;75088;53.114;18.040;2024-01-30T01:33:10;44.00;;;21.60;;
84840;SDS011;75088;53.114;18.040;2024-01-30T01:34:18;38.90;;;20.60;;
84840;SDS011;75088;53.114;18.040;2024-01-30T01:35:25;40.50;;;20.70;;
84840;SDS011;75088;53.114;18.040;2024-01-30T01:36:35;37.90;;;20.10;;
84840;SDS011;75088;53.114;18.040;2024-01-30T01:37:41;41.60;;;22.90;;
84840;SDS011;75088;53.114;18.040;2024-01-30T01:38:49;39.50;;;20.10;;
84840;SDS011;75088;53.114;18.040;2024-01-30T01:39:55;43.10;;;21.90;;
84840;SDS011;75088;53.114;18.040;2024-01-30T01:41:02;42.50;;;21.50;;
84840;SDS011;75088;53.114;18.040;2024-01-30T01:42:09;40.00;;;21.10;;
84840;SDS011;75088;53.114;18.040;2024-01-30T01:43:17;40.20;;;20.80;;
84840;SDS011;75088;53.114;18.040;2024-01-30T01:44:24;40.90;;;20.40;;
84840;SDS011;75088;53.114;18.040;2024-01-30T01:45:31;38.10;;;20.20;;
84840;SDS011;75088;53.114;18.040;2024-01-30T01:46:38;46.00;;;22.80;;
84840;SDS011;75088;53.114;18.040;2024-01-30T01:47:45;36.10;;;19.40;;
84840;SDS011;75088;53.114;18.040;2024-01-30T01:48:56;36.90;;;19.40;;
84840;SDS011;75088;53.114;18.040;2024-01-30T01:50:04;37.30;;;19.90;;
84840;SDS011;75088;53.114;18.040;2024-01-30T01:51:12;37.50;;;19.80;;
84840;SDS011;75088;53.114;18.040;2024-01-30T01:52:21;39.30;;;21.50;;
84840;SDS011;75088;53.114;18.040;2024-01-30T01:53:28;40.20;;;20.20;;
84840;SDS011;75088;53.114;18.040;2024-01-30T01:54:35;39.40;;;20.60;;
84840;SDS011;75088;53.114;18.040;2024-01-30T01:55:42;37.50;;;19.70;;
84840;SDS011;75088;53.114;18.040;2024-01-30T01:56:51;37.20;;;19.10;;
84840;SDS011;75088;53.114;18.040;2024-01-30T01:57:58;40.80;;;20.50;;
84840;SDS011;75088;53.114;18.040;2024-01-30T01:59:07;41.30;;;22.10;;
84840;SDS011;75088;53.114;18.040;2024-01-30T02:00:14;37.10;;;18.80;;
84840;SDS011;75088;53.114;18.040;2024-01-30T02:01:23;43.20;;;21.60;;
84840;SDS011;75088;53.114;18.040;2024-01-30T02:02:32;42.80;;;22.30;;
84840;SDS011;75088;53.114;18.040;2024-01-30T02:03:42;39.50;;;21.30;;
84840;SDS011;75088;53.114;18.040;2024-01-30T02:04:50;41.50;;;21.10;;
84840;SDS011;75088;53.114;18.040;2024-01-30T02:05:58;43.00;;;21.10;;
84840;SDS011;75088;53.114;18.040;2024-01-30T02:07:06;40.60;;;20.20;;
84840;SDS011;75088;53.114;18.040;2024-01-30T02:08:13;43.20;;;21.70;;
84840;SDS011;75088;53.114;18.040;2024-01-30T02:09:20;38.80;;;21.10;;
84840;SDS011;75088;53.114;18.040;2024-01-30T02:10:27;44.00;;;20.40;;
84840;SDS011;75088;53.114;18.040;2024-01-30T02:11:35;44.10;;;22.60;;
84840;SDS011;75088;53.114;18.040;2024-01-30T02:12:42;41.70;;;21.70;;
84840;SDS011;75088;53.114;18.040;2024-01-30T02:13:49;39.80;;;20.80;;
84840;SDS011;75088;53.114;18.040;2024-01-30T02:14:56;42.60;;;22.10;;
84840;SDS011;75088;53.114;18.040;2024-01-30T02:16:03;42.40;;;23.20;;
84840;SDS011;75088;53.114;18.040;2024-01-30T02:17:11;38.90;;;19.70;;
84840;SDS011;75088;53.114;18.040;2024-01-30T02:19:26;38.80;;;19.50;;
84840;SDS011;75088;53.114;18.040;2024-01-30T02:20:34;37.30;;;19.40;;
84840;SDS011;75088;53.114;18.040;2024-01-30T02:21:42;39.10;;;19.30;;
84840;SDS011;75088;53.114;18.040;2024-01-30T02:22:50;39.50;;;18.90;;
84840;SDS011;75088;53.114;18.040;2024-01-30T02:23:59;36.40;;;18.20;;
84840;SDS011;75088;53.114;18.040;2024-01-30T02:25:07;35.70;;;20.40;;
84840;SDS011;75088;53.114;18.040;2024-01-30T02:26:14;42.70;;;21.70;;
84840;SDS011;75088;53.114;18.040;2024-01-30T02:27:21;39.10;;;20.40;;
84840;SDS011;75088;53.114;18.040;2024-01-30T02:28:28;37.20;;;19.30;;
84840;SDS011;75088;53.114;18.040;2024-01-30T02:29:35;39.10;;;20.70;;
84840;SDS011;75088;53.114;18.040;2024-01-30T02:30:43;38.60;;;20.60;;
84840;SDS011;75088;53.114;18.040;2024-01-30T02:31:51;41.30;;;22.20;;
84840;SDS011;75088;53.114;18.040;2024-01-30T02:32:58;40.50;;;20.20;;
84840;SDS011;75088;53.114;18.040;2024-01-30T02:34:05;43.70;;;21.30;;
84840;SDS011;75088;53.114;18.040;2024-01-30T02:35:12;41.70;;;21.10;;
84840;SDS011;75088;53.114;18.040;2024-01-30T02:36:19;41.10;;;20.60;;
84840;SDS011;75088;53.114;18.040;2024-01-30T02:37:26;43.70;;;20.00;;
84840;SDS011;75088;53.114;18.040;2024-01-30T02:38:33;39.80;;;20.80;;
84840;SDS011;75088;53.114;18.040;2024-01-30T02:39:40;38.70;;;21.80;;
84840;SDS011;75088;53.114;18.040;2024-01-30T02:40:47;39.50;;;19.70;;
84840;SDS011;75088;53.114;18.040;2024-01-30T02:41:54;41.70;;;22.80;;
84840;SDS011;75088;53.114;18.040;2024-01-30T02:43:02;39.60;;;22.50;;
84840;SDS011;75088;53.114;18.040;2024-01-30T02:44:10;40.60;;;20.80;;
84840;SDS011;75088;53.114;18.040;2024-01-30T02:45:17;42.80;;;21.10;;
84840;SDS011;75088;53.114;18.040;2024-01-30T02:46:24;45.90;;;22.40;;
84840;SDS011;75088;53.114;18.040;2024-01-30T02:47:31;43.10;;;21.60;;
84840;SDS011;75088;53.114;18.040;2024-01-30T02:48:38;44.30;;;21.70;;
84840;SDS011;75088;53.114;18.040;2024-01-30T02:49:45;45.70;;;22.90;;
84840;SDS011;75088;53.114;18.040;2024-01-30T02:50:52;45.20;;;22.10;;
84840;SDS011;75088;53.114;18.040;2024-01-30T02:52:00;42.60;;;23.10;;
84840;SDS011;75088;53.114;18.040;2024-01-30T02:53:06;40.70;;;21.80;;
84840;SDS011;75088;53.114;18.040;2024-01-30T02:54:13;43.80;;;22.50;;
84840;SDS011;75088;53.114;18.040;2024-01-30T02:55:21;44.90;;;22.60;;
84840;SDS011;75088;53.114;18.040;2024-01-30T02:56:28;48.90;;;22.10;;
84840;SDS011;75088;53.114;18.040;2024-01-30T02:57:35;43.60;;;22.70;;
84840;SDS011;75088;53.114;18.040;2024-01-30T02:58:42;46.10;;;23.40;;
84840;SDS011;75088;53.114;18.040;2024-01-30T02:59:49;44.80;;;22.80;;
84840;SDS011;75088;53.114;18.040;2024-01-30T03:00:56;42.10;;;21.60;;
84840;SDS011;75088;53.114;18.040;2024-01-30T03:02:03;45.90;;;24.20;;
84840;SDS011;75088;53.114;18.040;2024-01-30T03:03:10;46.10;;;24.80;;
84840;SDS011;75088;53.114;18.040;2024-01-30T03:04:18;47.40;;;24.40;;
84840;SDS011;75088;53.114;18.040;2024-01-30T03:05:25;43.30;;;23.10;;
84840;SDS011;75088;53.114;18.040;2024-01-30T03:06:32;51.80;;;26.60;;
84840;SDS011;75088;53.114;18.040;2024-01-30T03:07:39;44.50;;;24.70;;
84840;SDS011;75088;53.114;18.040;2024-01-30T03:08:46;48.80;;;25.80;;
84840;SDS011;75088;53.114;18.040;2024-01-30T03:09:53;44.70;;;24.60;;
84840;SDS011;75088;53.114;18.040;2024-01-30T03:11:00;43.10;;;24.20;;
84840;SDS011;75088;53.114;18.040;2024-01-30T03:12:07;49.20;;;24.70;;
84840;SDS011;75088;53.114;18.040;2024-01-30T03:13:15;46.10;;;24.00;;
84840;SDS011;75088;53.114;18.040;2024-01-30T03:14:22;49.50;;;26.90;;
84840;SDS011;75088;53.114;18.040;2024-01-30T03:15:29;46.60;;;28.30;;
84840;SDS011;75088;53.114;18.040;2024-01-30T03:16:36;50.20;;;27.20;;
84840;SDS011;75088;53.114;18.040;2024-01-30T03:17:43;47.70;;;25.80;;
84840;SDS011;75088;53.114;18.040;2024-01-30T03:18:50;43.50;;;25.90;;
84840;SDS011;75088;53.114;18.040;2024-01-30T03:19:57;48.20;;;25.50;;
84840;SDS011;75088;53.114;18.040;2024-01-30T03:21:05;48.40;;;26.60;;
84840;SDS011;75088;53.114;18.040;2024-01-30T03:22:12;45.80;;;26.30;;
84840;SDS011;75088;53.114;18.040;2024-01-30T03:23:19;48.40;;;27.00;;
84840;SDS011;75088;53.114;18.040;2024-01-30T03:24:26;49.40;;;30.00;;
84840;SDS011;75088;53.114;18.040;2024-01-30T03:25:33;52.60;;;30.30;;
84840;SDS011;75088;53.114;18.040;2024-01-30T03:26:41;55.20;;;32.70;;
84840;SDS011;75088;53.114;18.040;2024-01-30T03:27:47;55.30;;;31.60;;
84840;SDS011;75088;53.114;18.040;2024-01-30T03:28:55;54.90;;;36.00;;
84840;SDS011;75088;53.114;18.040;2024-01-30T03:30:02;55.90;;;31.70;;
84840;SDS011;75088;53.114;18.040;2024-01-30T03:31:13;53.60;;;31.00;;
84840;SDS011;75088;53.114;18.040;2024-01-30T03:32:21;54.30;;;30.20;;
84840;SDS011;75088;53.114;18.040;2024-01-30T03:33:28;47.60;;;27.30;;
84840;SDS011;75088;53.114;18.040;2024-01-30T03:34:35;47.60;;;27.90;;
84840;SDS011;75088;53.114;18.040;2024-01-30T03:35:42;56.40;;;30.80;;
84840;SDS011;75088;53.114;18.040;2024-01-30T03:36:49;55.90;;;28.70;;
84840;SDS011;75088;53.114;18.040;2024-01-30T03:37:57;53.10;;;28.40;;
84840;SDS011;75088;53.114;18.040;2024-01-30T03:39:05;55.20;;;29.20;;
84840;SDS011;75088;53.114;18.040;2024-01-30T03:40:12;55.50;;;28.50;;
84840;SDS011;75088;53.114;18.040;2024-01-30T03:41:19;53.80;;;27.60;;
84840;SDS011;75088;53.114;18.040;2024-01-30T03:42:26;49.80;;;28.30;;
84840;SDS011;75088;53.114;18.040;2024-01-30T03:43:33;48.60;;;26.60;;
84840;SDS011;75088;53.114;18.040;2024-01-30T03:44:40;49.90;;;26.80;;
84840;SDS011;75088;53.114;18.040;2024-01-30T03:45:47;50.70;;;26.80;;
84840;SDS011;75088;53.114;18.040;2024-01-30T03:46:54;46.70;;;27.50;;
84840;SDS011;75088;53.114;18.040;2024-01-30T03:48:01;52.80;;;27.60;;
84840;SDS011;75088;53.114;18.040;2024-01-30T03:49:09;49.50;;;25.40;;
84840;SDS011;75088;53.114;18.040;2024-01-30T03:50:16;51.40;;;26.70;;
84840;SDS011;75088;53.114;18.040;2024-01-30T03:51:23;46.40;;;26.30;;
84840;SDS011;75088;53.114;18.040;2024-01-30T03:52:31;47.10;;;25.90;;
84840;SDS011;75088;53.114;18.040;2024-01-30T03:53:38;50.30;;;26.30;;
84840;SDS011;75088;53.114;18.040;2024-01-30T03:54:45;48.20;;;25.80;;
84840;SDS011;75088;53.114;18.040;2024-01-30T03:55:51;49.90;;;27.40;;
84840;SDS011;75088;53.114;18.040;2024-01-30T03:56:58;51.10;;;27.70;;
84840;SDS011;75088;53.114;18.040;2024-01-30T03:58:06;52.60;;;26.30;;
84840;SDS011;75088;53.114;18.040;2024-01-30T03:59:13;48.90;;;26.50;;
84840;SDS011;75088;53.114;18.040;2024-01-30T04:00:21;48.60;;;26.00;;
84840;SDS011;75088;53.114;18.040;2024-01-30T04:01:28;53.90;;;26.00;;
84840;SDS011;75088;53.114;18.040;2024-01-30T04:02:35;50.30;;;25.30;;
84840;SDS011;75088;53.114;18.040;2024-01-30T04:03:42;45.10;;;24.30;;
84840;SDS011;75088;53.114;18.040;2024-01-30T04:04:49;48.40;;;26.60;;
84840;SDS011;75088;53.114;18.040;2024-01-30T04:05:56;47.90;;;25.60;;
84840;SDS011;75088;53.114;18.040;2024-01-30T04:07:04;46.60;;;24.40;;
84840;SDS011;75088;53.114;18.040;2024-01-30T04:08:11;45.20;;;24.70;;
84840;SDS011;75088;53.114;18.040;2024-01-30T04:09:18;42.90;;;24.30;;
84840;SDS011;75088;53.114;18.040;2024-01-30T04:10:25;49.90;;;24.70;;
84840;SDS011;75088;53.114;18.040;2024-01-30T04:11:32;48.50;;;26.40;;
84840;SDS011;75088;53.114;18.040;2024-01-30T04:12:38;54.90;;;27.60;;
84840;SDS011;75088;53.114;18.040;2024-01-30T04:13:45;52.50;;;26.50;;
84840;SDS011;75088;53.114;18.040;2024-01-30T04:14:53;50.20;;;25.90;;
84840;SDS011;75088;53.114;18.040;2024-01-30T04:16:00;58.70;;;28.40;;
84840;SDS011;75088;53.114;18.040;2024-01-30T04:17:07;61.60;;;30.90;;
84840;SDS011;75088;53.114;18.040;2024-01-30T04:18:14;60.20;;;30.70;;
84840;SDS011;75088;53.114;18.040;2024-01-30T04:19:21;67.10;;;32.00;;
84840;SDS011;75088;53.114;18.040;2024-01-30T04:20:29;73.00;;;36.00;;
84840;SDS011;75088;53.114;18.040;2024-01-30T04:21:36;67.10;;;35.40;;
84840;SDS011;75088;53.114;18.040;2024-01-30T04:22:43;82.90;;;39.30;;
84840;SDS011;75088;53.114;18.040;2024-01-30T04:23:51;75.10;;;37.10;;
84840;SDS011;75088;53.114;18.040;2024-01-30T04:24:59;71.80;;;37.40;;
84840;SDS011;75088;53.114;18.040;2024-01-30T04:26:05;77.80;;;36.90;;
84840;SDS011;75088;53.114;18.040;2024-01-30T04:27:12;75.30;;;37.60;;
84840;SDS011;75088;53.114;18.040;2024-01-30T04:28:19;75.50;;;36.80;;
84840;SDS011;75088;53.114;18.040;2024-01-30T04:29:26;78.20;;;37.50;;
84840;SDS011;75088;53.114;18.040;2024-01-30T04:30:33;78.00;;;37.00;;
84840;SDS011;75088;53.114;18.040;2024-01-30T04:31:40;75.80;;;37.80;;
84840;SDS011;75088;53.114;18.040;2024-01-30T04:32:47;72.40;;;34.80;;
84840;SDS011;75088;53.114;18.040;2024-01-30T04:33:54;67.80;;;34.60;;
84840;SDS011;75088;53.114;18.040;2024-01-30T04:35:01;69.10;;;33.00;;
84840;SDS011;75088;53.114;18.040;2024-01-30T04:36:09;70.90;;;33.70;;
84840;SDS011;75088;53.114;18.040;2024-01-30T04:37:16;69.50;;;33.50;;
84840;SDS011;75088;53.114;18.040;2024-01-30T04:38:23;66.40;;;30.90;;
84840;SDS011;75088;53.114;18.040;2024-01-30T04:39:30;65.30;;;31.40;;
84840;SDS011;75088;53.114;18.040;2024-01-30T04:40:39;65.40;;;31.80;;
84840;SDS011;75088;53.114;18.040;2024-01-30T04:41:46;59.80;;;30.60;;
84840;SDS011;75088;53.114;18.040;2024-01-30T04:42:53;60.30;;;29.50;;
84840;SDS011;75088;53.114;18.040;2024-01-30T04:44:00;63.10;;;31.50;;
84840;SDS011;75088;53.114;18.040;2024-01-30T04:45:07;67.90;;;31.80;;
84840;SDS011;75088;53.114;18.040;2024-01-30T04:46:15;67.10;;;34.00;;
84840;SDS011;75088;53.114;18.040;2024-01-30T04:47:22;66.10;;;34.50;;
84840;SDS011;75088;53.114;18.040;2024-01-30T04:48:29;65.20;;;31.10;;
84840;SDS011;75088;53.114;18.040;2024-01-30T04:49:36;65.60;;;33.80;;
84840;SDS011;75088;53.114;18.040;2024-01-30T04:50:44;60.30;;;31.70;;
84840;SDS011;75088;53.114;18.040;2024-01-30T04:51:51;66.20;;;32.00;;
84840;SDS011;75088;53.114;18.040;2024-01-30T04:52:58;69.60;;;33.30;;
84840;SDS011;75088;53.114;18.040;2024-01-30T04:54:05;67.50;;;30.80;;
84840;SDS011;75088;53.114;18.040;2024-01-30T04:55:12;68.80;;;32.70;;
84840;SDS011;75088;53.114;18.040;2024-01-30T04:56:19;69.60;;;36.10;;
84840;SDS011;75088;53.114;18.040;2024-01-30T04:57:26;98.20;;;40.50;;
84840;SDS011;75088;53.114;18.040;2024-01-30T04:58:35;93.90;;;39.90;;
84840;SDS011;75088;53.114;18.040;2024-01-30T04:59:42;83.10;;;36.10;;
84840;SDS011;75088;53.114;18.040;2024-01-30T05:00:49;97.80;;;40.50;;
84840;SDS011;75088;53.114;18.040;2024-01-30T05:01:56;103.20;;;41.60;;
84840;SDS011;75088;53.114;18.040;2024-01-30T05:03:03;109.00;;;43.60;;
84840;SDS011;75088;53.114;18.040;2024-01-30T05:04:11;116.20;;;45.80;;
84840;SDS011;75088;53.114;18.040;2024-01-30T05:05:18;110.10;;;44.20;;
84840;SDS011;75088;53.114;18.040;2024-01-30T05:06:26;103.10;;;42.50;;
84840;SDS011;75088;53.114;18.040;2024-01-30T05:07:33;93.00;;;44.70;;
84840;SDS011;75088;53.114;18.040;2024-01-30T05:08:40;89.50;;;39.30;;
84840;SDS011;75088;53.114;18.040;2024-01-30T05:09:47;90.00;;;39.50;;
84840;SDS011;75088;53.114;18.040;2024-01-30T05:10:53;88.30;;;38.10;;
84840;SDS011;75088;53.114;18.040;2024-01-30T05:12:01;82.10;;;36.60;;
84840;SDS011;75088;53.114;18.040;2024-01-30T05:13:08;83.00;;;40.60;;
84840;SDS011;75088;53.114;18.040;2024-01-30T05:14:17;86.20;;;40.50;;
84840;SDS011;75088;53.114;18.040;2024-01-30T05:15:24;91.60;;;37.60;;
84840;SDS011;75088;53.114;18.040;2024-01-30T05:16:32;89.20;;;38.60;;
84840;SDS011;75088;53.114;18.040;2024-01-30T05:17:39;84.30;;;37.50;;
84840;SDS011;75088;53.114;18.040;2024-01-30T05:18:46;80.20;;;36.90;;
84840;SDS011;75088;53.114;18.040;2024-01-30T05:19:53;76.40;;;34.60;;
84840;SDS011;75088;53.114;18.040;2024-01-30T05:21:00;74.20;;;34.60;;
84840;SDS011;75088;53.114;18.040;2024-01-30T05:22:07;72.30;;;35.00;;
84840;SDS011;75088;53.114;18.040;2024-01-30T05:23:14;76.80;;;35.10;;
84840;SDS011;75088;53.114;18.040;2024-01-30T05:24:21;66.90;;;33.70;;
84840;SDS011;75088;53.114;18.040;2024-01-30T05:25:28;70.90;;;32.90;;
84840;SDS011;75088;53.114;18.040;2024-01-30T05:26:35;68.70;;;32.90;;
84840;SDS011;75088;53.114;18.040;2024-01-30T05:27:42;57.80;;;29.60;;
84840;SDS011;75088;53.114;18.040;2024-01-30T05:28:49;63.30;;;31.40;;
84840;SDS011;75088;53.114;18.040;2024-01-30T05:29:56;54.40;;;27.60;;
84840;SDS011;75088;53.114;18.040;2024-01-30T05:31:04;67.00;;;32.20;;
84840;SDS011;75088;53.114;18.040;2024-01-30T05:32:11;54.50;;;28.50;;
84840;SDS011;75088;53.114;18.040;2024-01-30T05:33:18;49.00;;;25.30;;
84840;SDS011;75088;53.114;18.040;2024-01-30T05:34:25;49.70;;;26.30;;
84840;SDS011;75088;53.114;18.040;2024-01-30T05:35:32;55.10;;;27.60;;
84840;SDS011;75088;53.114;18.040;2024-01-30T05:36:39;55.00;;;28.00;;
84840;SDS011;75088;53.114;18.040;2024-01-30T05:37:47;57.50;;;29.30;;
84840;SDS011;75088;53.114;18.040;2024-01-30T05:38:55;58.10;;;28.60;;
84840;SDS011;75088;53.114;18.040;2024-01-30T05:40:02;61.10;;;33.00;;
84840;SDS011;75088;53.114;18.040;2024-01-30T05:41:11;62.90;;;34.00;;
84840;SDS011;75088;53.114;18.040;2024-01-30T05:42:17;73.60;;;35.00;;
84840;SDS011;75088;53.114;18.040;2024-01-30T05:43:24;72.50;;;38.50;;
84840;SDS011;75088;53.114;18.040;2024-01-30T05:44:32;69.40;;;35.60;;
84840;SDS011;75088;53.114;18.040;2024-01-30T05:45:39;69.70;;;35.50;;
84840;SDS011;75088;53.114;18.040;2024-01-30T05:46:46;66.60;;;33.90;;
84840;SDS011;75088;53.114;18.040;2024-01-30T05:47:53;69.10;;;35.40;;
84840;SDS011;75088;53.114;18.040;2024-01-30T05:49:00;65.20;;;33.00;;
84840;SDS011;75088;53.114;18.040;2024-01-30T05:50:08;65.00;;;31.60;;
84840;SDS011;75088;53.114;18.040;2024-01-30T05:51:15;61.80;;;31.20;;
84840;SDS011;75088;53.114;18.040;2024-01-30T05:52:23;64.40;;;31.00;;
84840;SDS011;75088;53.114;18.040;2024-01-30T05:53:30;58.90;;;31.00;;
84840;SDS011;75088;53.114;18.040;2024-01-30T05:54:38;57.70;;;30.30;;
84840;SDS011;75088;53.114;18.040;2024-01-30T05:55:45;56.70;;;29.70;;
84840;SDS011;75088;53.114;18.040;2024-01-30T05:56:51;54.30;;;29.90;;
84840;SDS011;75088;53.114;18.040;2024-01-30T05:57:58;55.70;;;29.10;;
84840;SDS011;75088;53.114;18.040;2024-01-30T05:59:05;60.70;;;32.10;;
84840;SDS011;75088;53.114;18.040;2024-01-30T06:00:13;57.20;;;29.20;;
84840;SDS011;75088;53.114;18.040;2024-01-30T06:01:21;52.30;;;27.30;;
84840;SDS011;75088;53.114;18.040;2024-01-30T06:02:28;55.50;;;28.80;;
84840;SDS011;75088;53.114;18.040;2024-01-30T06:03:35;56.60;;;33.20;;
84840;SDS011;75088;53.114;18.040;2024-01-30T06:04:43;53.50;;;29.40;;
84840;SDS011;75088;53.114;18.040;2024-01-30T06:05:49;53.10;;;28.60;;
84840;SDS011;75088;53.114;18.040;2024-01-30T06:06:56;62.40;;;31.70;;
84840;SDS011;75088;53.114;18.040;2024-01-30T06:08:06;56.90;;;29.10;;
84840;SDS011;75088;53.114;18.040;2024-01-30T06:09:13;54.40;;;30.10;;
84840;SDS011;75088;53.114;18.040;2024-01-30T06:10:20;61.30;;;33.70;;
84840;SDS011;75088;53.114;18.040;2024-01-30T06:11:27;54.40;;;29.90;;
84840;SDS011;75088;53.114;18.040;2024-01-30T06:12:34;57.60;;;30.70;;
84840;SDS011;75088;53.114;18.040;2024-01-30T06:13:41;58.20;;;30.50;;
84840;SDS011;75088;53.114;18.040;2024-01-30T06:14:48;62.80;;;31.90;;
84840;SDS011;75088;53.114;18.040;2024-01-30T06:15:55;44.20;;;23.70;;
84840;SDS011;75088;53.114;18.040;2024-01-30T06:17:01;56.00;;;30.30;;
84840;SDS011;75088;53.114;18.040;2024-01-30T06:18:09;59.30;;;31.50;;
84840;SDS011;75088;53.114;18.040;2024-01-30T06:19:16;53.10;;;29.60;;
84840;SDS011;75088;53.114;18.040;2024-01-30T06:20:22;57.60;;;28.60;;
84840;SDS011;75088;53.114;18.040;2024-01-30T06:21:30;54.40;;;28.60;;
84840;SDS011;75088;53.114;18.040;2024-01-30T06:22:40;42.80;;;22.70;;
84840;SDS011;75088;53.114;18.040;2024-01-30T06:23:47;47.10;;;25.20;;
84840;SDS011;75088;53.114;18.040;2024-01-30T06:24:54;51.80;;;26.50;;
84840;SDS011;75088;53.114;18.040;2024-01-30T06:26:02;46.10;;;26.40;;
84840;SDS011;75088;53.114;18.040;2024-01-30T06:27:10;49.30;;;26.70;;
84840;SDS011;75088;53.114;18.040;2024-01-30T06:28:17;48.70;;;26.30;;
84840;SDS011;75088;53.114;18.040;2024-01-30T06:29:24;52.60;;;28.10;;